Terminal Aerodrome Forecast
Issued by NWS

Home | Current Version | Previous Version | Text Only | Print | Product List | Glossary On
Versions: 1 2 3 4 5 6 7 8 9 10 11 12 13
000
FTUS42 KTBW 031121
TAFPGD
TAF
KPGD 031121Z 0312/0412 VRB05KT P6SM FEW025 SCT250
     FM031600 29007KT P6SM SCT035 SCT250
     FM031900 29008KT P6SM VCTS SCT040CB SCT150
     FM040000 31005KT P6SM SCT050 BKN200
     FM040500 36003KT P6SM FEW030 SCT250=

USA.gov is the U.S. government's official web portal to all federal, state and local government web resources and services.